sensor_id;sensor_type;location;lat;lon;timestamp;P1;durP1;ratioP1;P2;durP2;ratioP2
65358;SDS011;52491;45.900;6.346;2023-04-29T00:01:07;7.45;;;6.53;;
65358;SDS011;52491;45.900;6.346;2023-04-29T00:03:33;10.05;;;5.97;;
65358;SDS011;52491;45.900;6.346;2023-04-29T00:05:59;5.95;;;5.32;;
65358;SDS011;52491;45.900;6.346;2023-04-29T00:08:26;6.38;;;5.30;;
65358;SDS011;52491;45.900;6.346;2023-04-29T00:10:52;8.48;;;6.78;;
65358;SDS011;52491;45.900;6.346;2023-04-29T00:13:17;8.25;;;5.97;;
65358;SDS011;52491;45.900;6.346;2023-04-29T00:15:43;7.68;;;5.95;;
65358;SDS011;52491;45.900;6.346;2023-04-29T00:18:09;7.07;;;5.43;;
65358;SDS011;52491;45.900;6.346;2023-04-29T00:20:35;5.65;;;5.00;;
65358;SDS011;52491;45.900;6.346;2023-04-29T00:23:04;7.68;;;5.95;;
65358;SDS011;52491;45.900;6.346;2023-04-29T00:25:31;6.32;;;5.40;;
65358;SDS011;52491;45.900;6.346;2023-04-29T00:27:57;6.32;;;5.30;;
65358;SDS011;52491;45.900;6.346;2023-04-29T00:30:26;7.50;;;5.15;;
65358;SDS011;52491;45.900;6.346;2023-04-29T00:32:52;6.53;;;5.35;;
65358;SDS011;52491;45.900;6.346;2023-04-29T00:35:19;8.25;;;5.82;;
65358;SDS011;52491;45.900;6.346;2023-04-29T00:37:45;5.32;;;4.80;;
65358;SDS011;52491;45.900;6.346;2023-04-29T00:40:10;6.78;;;6.07;;
65358;SDS011;52491;45.900;6.346;2023-04-29T00:42:39;5.38;;;4.88;;
65358;SDS011;52491;45.900;6.346;2023-04-29T00:45:05;6.13;;;4.70;;
65358;SDS011;52491;45.900;6.346;2023-04-29T00:47:31;5.85;;;4.95;;
65358;SDS011;52491;45.900;6.346;2023-04-29T00:49:57;6.30;;;5.30;;
65358;SDS011;52491;45.900;6.346;2023-04-29T00:52:22;6.50;;;4.78;;
65358;SDS011;52491;45.900;6.346;2023-04-29T00:54:49;8.38;;;5.65;;
65358;SDS011;52491;45.900;6.346;2023-04-29T00:57:16;7.00;;;5.50;;
65358;SDS011;52491;45.900;6.346;2023-04-29T00:59:43;6.95;;;5.35;;
65358;SDS011;52491;45.900;6.346;2023-04-29T01:02:10;4.97;;;4.32;;
65358;SDS011;52491;45.900;6.346;2023-04-29T01:04:36;5.53;;;4.82;;
65358;SDS011;52491;45.900;6.346;2023-04-29T01:07:14;5.75;;;4.68;;
65358;SDS011;52491;45.900;6.346;2023-04-29T01:10:06;6.35;;;5.18;;
65358;SDS011;52491;45.900;6.346;2023-04-29T01:17:57;4.65;;;3.85;;
65358;SDS011;52491;45.900;6.346;2023-04-29T01:20:25;7.45;;;4.85;;
65358;SDS011;52491;45.900;6.346;2023-04-29T01:22:51;4.25;;;3.88;;
65358;SDS011;52491;45.900;6.346;2023-04-29T01:25:17;6.22;;;4.10;;
65358;SDS011;52491;45.900;6.346;2023-04-29T01:30:32;5.05;;;4.35;;
65358;SDS011;52491;45.900;6.346;2023-04-29T01:33:05;4.68;;;4.18;;
65358;SDS011;52491;45.900;6.346;2023-04-29T01:44:26;5.30;;;3.60;;
65358;SDS011;52491;45.900;6.346;2023-04-29T01:46:54;5.20;;;4.25;;
65358;SDS011;52491;45.900;6.346;2023-04-29T01:49:23;3.70;;;3.40;;
65358;SDS011;52491;45.900;6.346;2023-04-29T01:51:49;4.78;;;4.10;;
65358;SDS011;52491;45.900;6.346;2023-04-29T01:54:16;5.70;;;4.07;;
65358;SDS011;52491;45.900;6.346;2023-04-29T01:56:41;4.72;;;4.13;;
65358;SDS011;52491;45.900;6.346;2023-04-29T01:59:08;7.35;;;4.05;;
65358;SDS011;52491;45.900;6.346;2023-04-29T02:01:34;3.28;;;2.97;;
65358;SDS011;52491;45.900;6.346;2023-04-29T02:04:01;3.75;;;3.45;;
65358;SDS011;52491;45.900;6.346;2023-04-29T02:06:27;3.60;;;3.30;;
65358;SDS011;52491;45.900;6.346;2023-04-29T02:08:53;3.72;;;3.15;;
65358;SDS011;52491;45.900;6.346;2023-04-29T02:11:18;4.80;;;3.40;;
65358;SDS011;52491;45.900;6.346;2023-04-29T02:13:44;6.63;;;3.72;;
65358;SDS011;52491;45.900;6.346;2023-04-29T02:16:10;6.47;;;3.85;;
65358;SDS011;52491;45.900;6.346;2023-04-29T02:18:37;4.00;;;3.60;;
65358;SDS011;52491;45.900;6.346;2023-04-29T02:21:04;6.00;;;3.80;;
65358;SDS011;52491;45.900;6.346;2023-04-29T02:23:29;5.43;;;3.97;;
65358;SDS011;52491;45.900;6.346;2023-04-29T02:25:55;3.38;;;3.08;;
65358;SDS011;52491;45.900;6.346;2023-04-29T02:28:21;4.07;;;3.55;;
65358;SDS011;52491;45.900;6.346;2023-04-29T02:30:48;4.72;;;4.22;;
65358;SDS011;52491;45.900;6.346;2023-04-29T02:33:13;5.63;;;3.83;;
65358;SDS011;52491;45.900;6.346;2023-04-29T02:35:40;5.25;;;3.85;;
65358;SDS011;52491;45.900;6.346;2023-04-29T02:38:06;3.78;;;3.20;;
65358;SDS011;52491;45.900;6.346;2023-04-29T02:40:31;4.28;;;3.20;;
65358;SDS011;52491;45.900;6.346;2023-04-29T02:42:57;3.20;;;2.90;;
65358;SDS011;52491;45.900;6.346;2023-04-29T02:45:23;2.92;;;2.70;;
65358;SDS011;52491;45.900;6.346;2023-04-29T02:47:48;3.40;;;2.80;;
65358;SDS011;52491;45.900;6.346;2023-04-29T02:50:14;3.15;;;2.83;;
65358;SDS011;52491;45.900;6.346;2023-04-29T02:52:39;3.35;;;2.85;;
65358;SDS011;52491;45.900;6.346;2023-04-29T02:55:06;4.10;;;3.58;;
65358;SDS011;52491;45.900;6.346;2023-04-29T02:57:32;3.33;;;3.03;;
65358;SDS011;52491;45.900;6.346;2023-04-29T02:59:58;3.22;;;2.47;;
65358;SDS011;52491;45.900;6.346;2023-04-29T03:02:23;3.30;;;2.67;;
65358;SDS011;52491;45.900;6.346;2023-04-29T03:04:49;4.93;;;3.28;;
65358;SDS011;52491;45.900;6.346;2023-04-29T03:07:15;2.58;;;2.38;;
65358;SDS011;52491;45.900;6.346;2023-04-29T03:09:41;5.47;;;3.20;;
65358;SDS011;52491;45.900;6.346;2023-04-29T03:12:07;3.10;;;2.47;;
65358;SDS011;52491;45.900;6.346;2023-04-29T03:14:32;3.13;;;2.45;;
65358;SDS011;52491;45.900;6.346;2023-04-29T03:16:58;4.07;;;3.15;;
65358;SDS011;52491;45.900;6.346;2023-04-29T03:19:23;2.60;;;2.20;;
65358;SDS011;52491;45.900;6.346;2023-04-29T03:21:49;2.92;;;2.42;;
65358;SDS011;52491;45.900;6.346;2023-04-29T03:24:15;3.13;;;2.70;;
65358;SDS011;52491;45.900;6.346;2023-04-29T03:26:40;2.72;;;2.20;;
65358;SDS011;52491;45.900;6.346;2023-04-29T03:29:07;2.88;;;2.50;;
65358;SDS011;52491;45.900;6.346;2023-04-29T03:31:32;2.92;;;2.55;;
65358;SDS011;52491;45.900;6.346;2023-04-29T03:33:58;2.92;;;2.50;;
65358;SDS011;52491;45.900;6.346;2023-04-29T03:36:24;3.25;;;2.58;;
65358;SDS011;52491;45.900;6.346;2023-04-29T03:38:49;2.60;;;2.17;;
65358;SDS011;52491;45.900;6.346;2023-04-29T03:41:15;3.35;;;2.40;;
65358;SDS011;52491;45.900;6.346;2023-04-29T03:43:41;2.47;;;2.10;;
65358;SDS011;52491;45.900;6.346;2023-04-29T03:46:08;2.75;;;2.30;;
65358;SDS011;52491;45.900;6.346;2023-04-29T03:48:34;2.45;;;2.17;;
65358;SDS011;52491;45.900;6.346;2023-04-29T03:51:01;3.10;;;2.20;;
65358;SDS011;52491;45.900;6.346;2023-04-29T03:53:26;2.65;;;2.45;;
65358;SDS011;52491;45.900;6.346;2023-04-29T03:55:52;3.55;;;2.08;;
65358;SDS011;52491;45.900;6.346;2023-04-29T03:58:18;2.70;;;2.30;;
65358;SDS011;52491;45.900;6.346;2023-04-29T04:00:43;2.40;;;1.92;;
65358;SDS011;52491;45.900;6.346;2023-04-29T04:03:10;3.08;;;2.28;;
65358;SDS011;52491;45.900;6.346;2023-04-29T04:05:35;3.17;;;2.35;;
65358;SDS011;52491;45.900;6.346;2023-04-29T04:08:01;2.75;;;2.53;;
65358;SDS011;52491;45.900;6.346;2023-04-29T04:10:26;3.88;;;2.70;;
65358;SDS011;52491;45.900;6.346;2023-04-29T04:12:52;3.40;;;2.47;;
65358;SDS011;52491;45.900;6.346;2023-04-29T04:15:18;2.95;;;2.47;;
65358;SDS011;52491;45.900;6.346;2023-04-29T04:17:43;2.67;;;1.98;;
65358;SDS011;52491;45.900;6.346;2023-04-29T04:20:09;2.45;;;2.25;;
65358;SDS011;52491;45.900;6.346;2023-04-29T04:22:35;2.30;;;1.80;;
65358;SDS011;52491;45.900;6.346;2023-04-29T04:25:02;2.03;;;1.83;;
65358;SDS011;52491;45.900;6.346;2023-04-29T04:27:29;4.20;;;2.35;;
65358;SDS011;52491;45.900;6.346;2023-04-29T04:29:54;3.83;;;2.05;;
65358;SDS011;52491;45.900;6.346;2023-04-29T04:32:20;3.72;;;2.17;;
65358;SDS011;52491;45.900;6.346;2023-04-29T04:34:47;3.85;;;2.08;;
65358;SDS011;52491;45.900;6.346;2023-04-29T04:37:13;3.45;;;1.75;;
65358;SDS011;52491;45.900;6.346;2023-04-29T04:39:39;1.85;;;1.65;;
65358;SDS011;52491;45.900;6.346;2023-04-29T04:42:05;3.65;;;2.50;;
65358;SDS011;52491;45.900;6.346;2023-04-29T04:44:31;2.42;;;1.75;;
65358;SDS011;52491;45.900;6.346;2023-04-29T04:46:56;2.40;;;1.67;;
65358;SDS011;52491;45.900;6.346;2023-04-29T04:49:22;2.13;;;1.92;;
65358;SDS011;52491;45.900;6.346;2023-04-29T04:51:51;2.33;;;1.70;;
65358;SDS011;52491;45.900;6.346;2023-04-29T04:54:17;3.17;;;2.00;;
65358;SDS011;52491;45.900;6.346;2023-04-29T04:56:43;2.35;;;1.83;;
65358;SDS011;52491;45.900;6.346;2023-04-29T04:59:09;2.30;;;1.90;;
65358;SDS011;52491;45.900;6.346;2023-04-29T05:01:35;1.90;;;1.80;;
65358;SDS011;52491;45.900;6.346;2023-04-29T05:04:00;1.77;;;1.50;;
65358;SDS011;52491;45.900;6.346;2023-04-29T05:06:27;2.88;;;2.20;;
65358;SDS011;52491;45.900;6.346;2023-04-29T05:08:53;2.25;;;1.50;;
65358;SDS011;52491;45.900;6.346;2023-04-29T05:11:19;3.35;;;1.70;;
65358;SDS011;52491;45.900;6.346;2023-04-29T05:13:47;3.47;;;2.50;;
65358;SDS011;52491;45.900;6.346;2023-04-29T05:16:13;6.00;;;2.05;;
65358;SDS011;52491;45.900;6.346;2023-04-29T05:18:42;2.38;;;2.00;;
65358;SDS011;52491;45.900;6.346;2023-04-29T05:21:10;3.38;;;1.55;;
65358;SDS011;52491;45.900;6.346;2023-04-29T05:23:37;7.35;;;1.83;;
65358;SDS011;52491;45.900;6.346;2023-04-29T05:26:03;2.72;;;2.35;;
65358;SDS011;52491;45.900;6.346;2023-04-29T05:28:29;4.10;;;2.03;;
65358;SDS011;52491;45.900;6.346;2023-04-29T05:30:54;2.33;;;1.85;;
65358;SDS011;52491;45.900;6.346;2023-04-29T05:33:20;2.80;;;1.63;;
65358;SDS011;52491;45.900;6.346;2023-04-29T05:35:46;3.78;;;1.83;;
65358;SDS011;52491;45.900;6.346;2023-04-29T05:38:12;2.15;;;1.60;;
65358;SDS011;52491;45.900;6.346;2023-04-29T05:40:37;2.35;;;1.48;;
65358;SDS011;52491;45.900;6.346;2023-04-29T05:43:03;3.53;;;1.52;;
65358;SDS011;52491;45.900;6.346;2023-04-29T05:45:28;2.45;;;1.63;;
65358;SDS011;52491;45.900;6.346;2023-04-29T05:47:54;2.10;;;1.40;;
65358;SDS011;52491;45.900;6.346;2023-04-29T05:50:19;1.63;;;1.48;;
65358;SDS011;52491;45.900;6.346;2023-04-29T05:52:45;1.92;;;1.73;;
65358;SDS011;52491;45.900;6.346;2023-04-29T05:55:10;2.58;;;1.60;;
65358;SDS011;52491;45.900;6.346;2023-04-29T05:57:36;2.60;;;1.67;;
65358;SDS011;52491;45.900;6.346;2023-04-29T06:00:02;1.67;;;1.55;;
65358;SDS011;52491;45.900;6.346;2023-04-29T06:02:28;2.00;;;1.48;;
65358;SDS011;52491;45.900;6.346;2023-04-29T06:04:53;2.42;;;1.30;;
65358;SDS011;52491;45.900;6.346;2023-04-29T06:07:19;2.05;;;1.33;;
65358;SDS011;52491;45.900;6.346;2023-04-29T06:09:45;2.10;;;1.63;;
65358;SDS011;52491;45.900;6.346;2023-04-29T06:12:11;2.47;;;1.50;;
65358;SDS011;52491;45.900;6.346;2023-04-29T06:14:37;1.50;;;1.38;;
65358;SDS011;52491;45.900;6.346;2023-04-29T06:17:02;8.70;;;1.65;;
65358;SDS011;52491;45.900;6.346;2023-04-29T06:19:28;2.40;;;1.52;;
65358;SDS011;52491;45.900;6.346;2023-04-29T06:21:53;1.58;;;1.40;;
65358;SDS011;52491;45.900;6.346;2023-04-29T06:24:19;2.67;;;1.70;;
65358;SDS011;52491;45.900;6.346;2023-04-29T06:26:45;2.92;;;1.65;;
65358;SDS011;52491;45.900;6.346;2023-04-29T06:29:11;1.52;;;1.25;;
65358;SDS011;52491;45.900;6.346;2023-04-29T06:31:36;1.40;;;1.30;;
65358;SDS011;52491;45.900;6.346;2023-04-29T06:34:02;6.38;;;1.63;;
65358;SDS011;52491;45.900;6.346;2023-04-29T06:36:28;12.07;;;1.75;;
65358;SDS011;52491;45.900;6.346;2023-04-29T06:38:53;2.20;;;1.63;;
65358;SDS011;52491;45.900;6.346;2023-04-29T06:41:19;1.83;;;1.67;;
65358;SDS011;52491;45.900;6.346;2023-04-29T06:43:45;1.77;;;1.33;;
65358;SDS011;52491;45.900;6.346;2023-04-29T06:46:10;2.13;;;1.15;;
65358;SDS011;52491;45.900;6.346;2023-04-29T06:48:37;1.45;;;1.35;;
65358;SDS011;52491;45.900;6.346;2023-04-29T06:51:02;1.20;;;1.10;;
65358;SDS011;52491;45.900;6.346;2023-04-29T06:53:28;4.60;;;1.27;;
65358;SDS011;52491;45.900;6.346;2023-04-29T06:55:54;2.50;;;1.80;;
65358;SDS011;52491;45.900;6.346;2023-04-29T06:58:19;2.55;;;1.80;;
65358;SDS011;52491;45.900;6.346;2023-04-29T07:00:46;1.85;;;1.45;;
65358;SDS011;52491;45.900;6.346;2023-04-29T07:03:14;2.95;;;1.50;;
65358;SDS011;52491;45.900;6.346;2023-04-29T07:05:40;2.03;;;1.58;;
65358;SDS011;52491;45.900;6.346;2023-04-29T07:08:09;1.58;;;1.33;;
65358;SDS011;52491;45.900;6.346;2023-04-29T07:10:37;4.65;;;1.75;;
65358;SDS011;52491;45.900;6.346;2023-04-29T07:13:03;3.35;;;1.48;;
65358;SDS011;52491;45.900;6.346;2023-04-29T07:15:29;3.97;;;1.52;;
65358;SDS011;52491;45.900;6.346;2023-04-29T07:17:59;1.80;;;1.02;;
65358;SDS011;52491;45.900;6.346;2023-04-29T07:20:25;1.70;;;1.58;;
65358;SDS011;52491;45.900;6.346;2023-04-29T07:22:52;3.13;;;1.75;;
65358;SDS011;52491;45.900;6.346;2023-04-29T07:25:18;2.03;;;1.40;;
65358;SDS011;52491;45.900;6.346;2023-04-29T07:27:44;2.42;;;1.40;;
65358;SDS011;52491;45.900;6.346;2023-04-29T07:30:10;3.70;;;1.77;;
65358;SDS011;52491;45.900;6.346;2023-04-29T07:32:36;2.63;;;1.40;;
65358;SDS011;52491;45.900;6.346;2023-04-29T07:35:02;3.92;;;1.23;;
65358;SDS011;52491;45.900;6.346;2023-04-29T07:37:28;3.58;;;1.55;;
65358;SDS011;52491;45.900;6.346;2023-04-29T07:39:55;2.15;;;1.95;;
65358;SDS011;52491;45.900;6.346;2023-04-29T07:42:20;2.63;;;1.30;;
65358;SDS011;52491;45.900;6.346;2023-04-29T07:44:46;3.22;;;1.73;;
65358;SDS011;52491;45.900;6.346;2023-04-29T07:47:12;2.15;;;1.75;;
65358;SDS011;52491;45.900;6.346;2023-04-29T07:49:37;2.03;;;1.30;;
65358;SDS011;52491;45.900;6.346;2023-04-29T07:52:03;3.33;;;1.40;;
65358;SDS011;52491;45.900;6.346;2023-04-29T07:54:29;6.32;;;1.73;;
65358;SDS011;52491;45.900;6.346;2023-04-29T07:56:56;1.63;;;1.30;;
65358;SDS011;52491;45.900;6.346;2023-04-29T07:59:22;2.50;;;1.73;;
65358;SDS011;52491;45.900;6.346;2023-04-29T08:01:48;3.90;;;1.23;;
65358;SDS011;52491;45.900;6.346;2023-04-29T08:04:14;2.63;;;1.10;;
65358;SDS011;52491;45.900;6.346;2023-04-29T08:06:40;2.70;;;1.52;;
65358;SDS011;52491;45.900;6.346;2023-04-29T08:09:08;2.67;;;1.35;;
65358;SDS011;52491;45.900;6.346;2023-04-29T08:11:35;3.03;;;2.05;;
65358;SDS011;52491;45.900;6.346;2023-04-29T08:14:00;3.22;;;1.70;;
65358;SDS011;52491;45.900;6.346;2023-04-29T08:16:27;1.23;;;1.10;;
65358;SDS011;52491;45.900;6.346;2023-04-29T08:18:54;2.75;;;1.52;;
65358;SDS011;52491;45.900;6.346;2023-04-29T08:21:20;8.80;;;1.40;;
65358;SDS011;52491;45.900;6.346;2023-04-29T08:23:45;3.88;;;1.83;;
65358;SDS011;52491;45.900;6.346;2023-04-29T08:26:11;3.58;;;1.20;;
65358;SDS011;52491;45.900;6.346;2023-04-29T08:28:40;3.00;;;1.30;;
65358;SDS011;52491;45.900;6.346;2023-04-29T08:31:07;2.17;;;1.02;;
65358;SDS011;52491;45.900;6.346;2023-04-29T08:33:37;3.70;;;1.05;;
65358;SDS011;52491;45.900;6.346;2023-04-29T08:36:03;2.72;;;1.08;;
65358;SDS011;52491;45.900;6.346;2023-04-29T08:38:29;12.15;;;1.45;;
65358;SDS011;52491;45.900;6.346;2023-04-29T08:40:55;1.75;;;1.00;;
65358;SDS011;52491;45.900;6.346;2023-04-29T08:43:21;3.22;;;1.63;;
65358;SDS011;52491;45.900;6.346;2023-04-29T08:45:47;27.70;;;2.33;;
65358;SDS011;52491;45.900;6.346;2023-04-29T08:48:17;4.38;;;1.33;;
65358;SDS011;52491;45.900;6.346;2023-04-29T08:50:43;2.20;;;0.98;;
65358;SDS011;52491;45.900;6.346;2023-04-29T08:53:10;2.00;;;1.30;;
65358;SDS011;52491;45.900;6.346;2023-04-29T08:55:41;1.10;;;0.80;;
65358;SDS011;52491;45.900;6.346;2023-04-29T08:58:09;2.92;;;0.98;;
65358;SDS011;52491;45.900;6.346;2023-04-29T09:00:37;2.13;;;0.82;;
65358;SDS011;52491;45.900;6.346;2023-04-29T09:03:16;1.75;;;1.00;;
65358;SDS011;52491;45.900;6.346;2023-04-29T09:05:47;1.67;;;0.90;;
65358;SDS011;52491;45.900;6.346;2023-04-29T09:08:18;1.10;;;0.82;;
65358;SDS011;52491;45.900;6.346;2023-04-29T09:10:46;2.63;;;1.05;;
65358;SDS011;52491;45.900;6.346;2023-04-29T09:13:23;0.95;;;0.80;;
65358;SDS011;52491;45.900;6.346;2023-04-29T09:15:51;0.85;;;0.85;;
65358;SDS011;52491;45.900;6.346;2023-04-29T09:21:15;2.25;;;1.00;;
65358;SDS011;52491;45.900;6.346;2023-04-29T09:23:56;1.38;;;1.02;;
65358;SDS011;52491;45.900;6.346;2023-04-29T09:26:23;2.55;;;0.85;;
65358;SDS011;52491;45.900;6.346;2023-04-29T09:31:45;3.08;;;1.13;;
65358;SDS011;52491;45.900;6.346;2023-04-29T09:34:13;1.92;;;0.90;;
65358;SDS011;52491;45.900;6.346;2023-04-29T09:36:47;1.60;;;0.90;;
65358;SDS011;52491;45.900;6.346;2023-04-29T09:39:14;1.02;;;0.85;;
65358;SDS011;52491;45.900;6.346;2023-04-29T09:44:23;6.10;;;0.70;;
65358;SDS011;52491;45.900;6.346;2023-04-29T09:49:35;4.95;;;0.85;;
65358;SDS011;52491;45.900;6.346;2023-04-29T09:52:06;1.27;;;0.90;;
65358;SDS011;52491;45.900;6.346;2023-04-29T09:54:35;1.80;;;0.82;;
65358;SDS011;52491;45.900;6.346;2023-04-29T09:57:03;1.98;;;0.85;;
65358;SDS011;52491;45.900;6.346;2023-04-29T09:59:32;5.28;;;0.73;;
65358;SDS011;52491;45.900;6.346;2023-04-29T10:02:05;1.65;;;1.08;;
65358;SDS011;52491;45.900;6.346;2023-04-29T10:04:40;1.05;;;0.60;;
65358;SDS011;52491;45.900;6.346;2023-04-29T10:07:10;1.25;;;0.88;;
65358;SDS011;52491;45.900;6.346;2023-04-29T10:09:40;6.75;;;0.90;;
65358;SDS011;52491;45.900;6.346;2023-04-29T10:12:07;0.90;;;0.80;;
65358;SDS011;52491;45.900;6.346;2023-04-29T10:14:37;0.68;;;0.63;;
65358;SDS011;52491;45.900;6.346;2023-04-29T10:17:15;1.08;;;0.80;;
65358;SDS011;52491;45.900;6.346;2023-04-29T10:19:59;1.95;;;0.88;;
65358;SDS011;52491;45.900;6.346;2023-04-29T10:22:51;3.38;;;0.90;;
65358;SDS011;52491;45.900;6.346;2023-04-29T10:25:17;1.55;;;0.63;;
65358;SDS011;52491;45.900;6.346;2023-04-29T10:27:45;3.28;;;0.75;;
65358;SDS011;52491;45.900;6.346;2023-04-29T10:30:13;1.05;;;0.60;;
65358;SDS011;52491;45.900;6.346;2023-04-29T10:32:40;4.25;;;1.17;;
65358;SDS011;52491;45.900;6.346;2023-04-29T10:35:08;3.13;;;1.00;;
65358;SDS011;52491;45.900;6.346;2023-04-29T10:37:39;0.73;;;0.55;;
65358;SDS011;52491;45.900;6.346;2023-04-29T10:40:11;6.22;;;1.20;;
65358;SDS011;52491;45.900;6.346;2023-04-29T10:42:44;1.73;;;0.85;;
65358;SDS011;52491;45.900;6.346;2023-04-29T10:45:17;5.15;;;1.75;;
65358;SDS011;52491;45.900;6.346;2023-04-29T10:50:34;21.77;;;8.20;;
65358;SDS011;52491;45.900;6.346;2023-04-29T10:53:09;8.02;;;3.28;;
65358;SDS011;52491;45.900;6.346;2023-04-29T10:55:35;14.50;;;4.28;;
65358;SDS011;52491;45.900;6.346;2023-04-29T10:58:02;15.55;;;5.25;;
65358;SDS011;52491;45.900;6.346;2023-04-29T11:00:30;9.65;;;5.72;;
65358;SDS011;52491;45.900;6.346;2023-04-29T11:02:58;11.90;;;4.38;;
65358;SDS011;52491;45.900;6.346;2023-04-29T11:05:29;6.85;;;4.53;;
65358;SDS011;52491;45.900;6.346;2023-04-29T11:08:12;11.80;;;5.45;;
65358;SDS011;52491;45.900;6.346;2023-04-29T11:10:46;10.52;;;6.28;;
65358;SDS011;52491;45.900;6.346;2023-04-29T11:13:28;12.93;;;5.80;;
65358;SDS011;52491;45.900;6.346;2023-04-29T11:16:08;11.60;;;6.90;;
65358;SDS011;52491;45.900;6.346;2023-04-29T11:18:36;18.65;;;8.23;;
65358;SDS011;52491;45.900;6.346;2023-04-29T11:21:21;14.43;;;6.90;;
65358;SDS011;52491;45.900;6.346;2023-04-29T11:23:49;9.57;;;5.72;;
65358;SDS011;52491;45.900;6.346;2023-04-29T11:26:18;16.90;;;6.82;;
65358;SDS011;52491;45.900;6.346;2023-04-29T11:28:44;12.75;;;7.07;;
65358;SDS011;52491;45.900;6.346;2023-04-29T11:31:10;11.82;;;6.38;;
65358;SDS011;52491;45.900;6.346;2023-04-29T11:33:35;13.05;;;5.97;;
65358;SDS011;52491;45.900;6.346;2023-04-29T11:36:02;10.70;;;7.03;;
65358;SDS011;52491;45.900;6.346;2023-04-29T11:38:28;14.77;;;6.22;;
65358;SDS011;52491;45.900;6.346;2023-04-29T11:40:55;8.70;;;5.22;;
65358;SDS011;52491;45.900;6.346;2023-04-29T11:43:24;11.02;;;6.03;;
65358;SDS011;52491;45.900;6.346;2023-04-29T11:45:50;15.57;;;6.38;;
65358;SDS011;52491;45.900;6.346;2023-04-29T11:48:23;13.23;;;5.90;;
65358;SDS011;52491;45.900;6.346;2023-04-29T11:50:53;12.45;;;6.55;;
65358;SDS011;52491;45.900;6.346;2023-04-29T11:53:22;8.82;;;4.88;;
65358;SDS011;52491;45.900;6.346;2023-04-29T11:55:54;11.00;;;5.50;;
65358;SDS011;52491;45.900;6.346;2023-04-29T11:58:20;9.75;;;4.85;;
65358;SDS011;52491;45.900;6.346;2023-04-29T12:00:47;6.70;;;2.97;;
65358;SDS011;52491;45.900;6.346;2023-04-29T12:03:13;8.32;;;3.67;;
65358;SDS011;52491;45.900;6.346;2023-04-29T12:05:49;3.05;;;1.33;;
65358;SDS011;52491;45.900;6.346;2023-04-29T12:08:20;5.07;;;2.45;;
65358;SDS011;52491;45.900;6.346;2023-04-29T12:10:46;7.57;;;2.80;;
65358;SDS011;52491;45.900;6.346;2023-04-29T12:13:12;9.00;;;3.42;;
65358;SDS011;52491;45.900;6.346;2023-04-29T12:15:39;6.22;;;2.67;;
65358;SDS011;52491;45.900;6.346;2023-04-29T12:18:05;5.95;;;3.08;;
65358;SDS011;52491;45.900;6.346;2023-04-29T12:20:32;6.07;;;2.65;;
65358;SDS011;52491;45.900;6.346;2023-04-29T12:23:15;4.00;;;2.65;;
65358;SDS011;52491;45.900;6.346;2023-04-29T12:25:52;6.80;;;2.97;;
65358;SDS011;52491;45.900;6.346;2023-04-29T12:28:19;7.40;;;2.28;;
65358;SDS011;52491;45.900;6.346;2023-04-29T12:30:45;4.20;;;2.58;;
65358;SDS011;52491;45.900;6.346;2023-04-29T12:35:51;5.85;;;2.25;;
65358;SDS011;52491;45.900;6.346;2023-04-29T12:38:25;5.90;;;2.10;;
65358;SDS011;52491;45.900;6.346;2023-04-29T12:40:57;8.00;;;2.97;;
65358;SDS011;52491;45.900;6.346;2023-04-29T12:43:27;4.72;;;2.00;;
65358;SDS011;52491;45.900;6.346;2023-04-29T12:45:54;5.05;;;2.45;;
65358;SDS011;52491;45.900;6.346;2023-04-29T12:48:29;3.17;;;2.03;;
65358;SDS011;52491;45.900;6.346;2023-04-29T12:50:56;3.88;;;1.95;;
65358;SDS011;52491;45.900;6.346;2023-04-29T12:53:24;7.18;;;2.08;;
65358;SDS011;52491;45.900;6.346;2023-04-29T12:55:51;4.53;;;2.30;;
65358;SDS011;52491;45.900;6.346;2023-04-29T12:58:17;3.90;;;2.10;;
65358;SDS011;52491;45.900;6.346;2023-04-29T13:00:43;5.00;;;2.25;;
65358;SDS011;52491;45.900;6.346;2023-04-29T13:03:09;4.72;;;2.55;;
65358;SDS011;52491;45.900;6.346;2023-04-29T13:05:34;4.38;;;1.98;;
65358;SDS011;52491;45.900;6.346;2023-04-29T13:08:00;4.50;;;2.00;;
65358;SDS011;52491;45.900;6.346;2023-04-29T13:10:26;3.83;;;1.52;;
65358;SDS011;52491;45.900;6.346;2023-04-29T13:12:55;8.93;;;2.05;;
65358;SDS011;52491;45.900;6.346;2023-04-29T13:15:21;6.07;;;2.38;;
65358;SDS011;52491;45.900;6.346;2023-04-29T13:17:47;7.35;;;2.20;;
65358;SDS011;52491;45.900;6.346;2023-04-29T13:20:13;11.05;;;2.20;;
65358;SDS011;52491;45.900;6.346;2023-04-29T13:22:39;3.03;;;2.28;;
65358;SDS011;52491;45.900;6.346;2023-04-29T13:25:07;6.65;;;2.45;;
65358;SDS011;52491;45.900;6.346;2023-04-29T13:27:33;4.10;;;1.65;;
65358;SDS011;52491;45.900;6.346;2023-04-29T13:29:58;4.68;;;1.80;;
65358;SDS011;52491;45.900;6.346;2023-04-29T13:32:24;4.25;;;2.13;;
65358;SDS011;52491;45.900;6.346;2023-04-29T13:34:50;5.82;;;2.05;;
65358;SDS011;52491;45.900;6.346;2023-04-29T13:37:16;5.10;;;1.65;;
65358;SDS011;52491;45.900;6.346;2023-04-29T13:39:44;3.28;;;1.92;;
65358;SDS011;52491;45.900;6.346;2023-04-29T13:42:10;3.10;;;2.00;;
65358;SDS011;52491;45.900;6.346;2023-04-29T13:44:36;8.48;;;1.77;;
65358;SDS011;52491;45.900;6.346;2023-04-29T13:47:02;4.07;;;2.00;;
65358;SDS011;52491;45.900;6.346;2023-04-29T13:49:30;3.78;;;1.60;;
65358;SDS011;52491;45.900;6.346;2023-04-29T13:51:56;3.67;;;1.50;;
65358;SDS011;52491;45.900;6.346;2023-04-29T13:54:21;5.25;;;1.98;;
65358;SDS011;52491;45.900;6.346;2023-04-29T13:56:47;5.93;;;1.80;;
65358;SDS011;52491;45.900;6.346;2023-04-29T13:59:13;4.22;;;1.65;;
65358;SDS011;52491;45.900;6.346;2023-04-29T14:01:40;2.92;;;1.70;;
65358;SDS011;52491;45.900;6.346;2023-04-29T14:04:06;6.40;;;1.70;;
65358;SDS011;52491;45.900;6.346;2023-04-29T14:06:32;2.65;;;1.70;;
65358;SDS011;52491;45.900;6.346;2023-04-29T14:08:58;3.88;;;1.88;;
65358;SDS011;52491;45.900;6.346;2023-04-29T14:11:24;7.07;;;1.60;;
65358;SDS011;52491;45.900;6.346;2023-04-29T14:13:50;2.25;;;1.50;;
65358;SDS011;52491;45.900;6.346;2023-04-29T14:16:15;2.00;;;1.65;;
65358;SDS011;52491;45.900;6.346;2023-04-29T14:18:42;2.80;;;1.98;;
65358;SDS011;52491;45.900;6.346;2023-04-29T14:21:08;2.83;;;1.40;;
65358;SDS011;52491;45.900;6.346;2023-04-29T14:23:35;3.85;;;1.50;;
65358;SDS011;52491;45.900;6.346;2023-04-29T14:26:01;3.15;;;1.60;;
65358;SDS011;52491;45.900;6.346;2023-04-29T14:28:28;3.67;;;1.70;;
65358;SDS011;52491;45.900;6.346;2023-04-29T14:30:54;2.42;;;1.40;;
65358;SDS011;52491;45.900;6.346;2023-04-29T14:33:20;5.47;;;1.55;;
65358;SDS011;52491;45.900;6.346;2023-04-29T14:35:46;4.78;;;1.42;;
65358;SDS011;52491;45.900;6.346;2023-04-29T14:38:11;3.28;;;1.88;;
65358;SDS011;52491;45.900;6.346;2023-04-29T14:40:37;2.88;;;1.45;;
65358;SDS011;52491;45.900;6.346;2023-04-29T14:43:03;1.98;;;1.20;;
65358;SDS011;52491;45.900;6.346;2023-04-29T14:45:28;5.60;;;1.73;;
65358;SDS011;52491;45.900;6.346;2023-04-29T14:47:54;4.28;;;1.63;;
65358;SDS011;52491;45.900;6.346;2023-04-29T14:50:20;2.55;;;1.60;;
65358;SDS011;52491;45.900;6.346;2023-04-29T14:52:47;2.70;;;1.17;;
65358;SDS011;52491;45.900;6.346;2023-04-29T14:55:12;5.00;;;1.85;;
65358;SDS011;52491;45.900;6.346;2023-04-29T14:57:38;1.58;;;1.17;;
65358;SDS011;52491;45.900;6.346;2023-04-29T15:00:04;4.10;;;1.60;;
65358;SDS011;52491;45.900;6.346;2023-04-29T15:02:32;2.83;;;1.10;;
65358;SDS011;52491;45.900;6.346;2023-04-29T15:04:59;3.20;;;1.10;;
65358;SDS011;52491;45.900;6.346;2023-04-29T15:07:28;1.67;;;1.10;;
65358;SDS011;52491;45.900;6.346;2023-04-29T15:09:54;1.83;;;1.13;;
65358;SDS011;52491;45.900;6.346;2023-04-29T15:12:19;1.45;;;1.25;;
65358;SDS011;52491;45.900;6.346;2023-04-29T15:14:46;1.33;;;0.95;;
65358;SDS011;52491;45.900;6.346;2023-04-29T15:17:11;2.42;;;1.25;;
65358;SDS011;52491;45.900;6.346;2023-04-29T15:19:37;4.90;;;1.20;;